sensor_id;sensor_type;location;lat;lon;timestamp;P1;durP1;ratioP1;P2;durP2;ratioP2
70780;SDS011;59514;48.810;2.134;2023-04-04T00:00:09;2.35;;;1.90;;
70780;SDS011;59514;48.810;2.134;2023-04-04T00:02:35;1.90;;;1.60;;
70780;SDS011;59514;48.810;2.134;2023-04-04T00:05:01;1.88;;;1.70;;
70780;SDS011;59514;48.810;2.134;2023-04-04T00:07:26;2.17;;;1.55;;
70780;SDS011;59514;48.810;2.134;2023-04-04T00:09:52;1.90;;;1.48;;
70780;SDS011;59514;48.810;2.134;2023-04-04T00:12:17;2.63;;;2.00;;
70780;SDS011;59514;48.810;2.134;2023-04-04T00:14:42;3.08;;;1.63;;
70780;SDS011;59514;48.810;2.134;2023-04-04T00:17:08;1.60;;;1.50;;
70780;SDS011;59514;48.810;2.134;2023-04-04T00:19:33;3.47;;;1.92;;
70780;SDS011;59514;48.810;2.134;2023-04-04T00:21:59;2.00;;;1.70;;
70780;SDS011;59514;48.810;2.134;2023-04-04T00:24:24;2.78;;;1.90;;
70780;SDS011;59514;48.810;2.134;2023-04-04T00:26:50;1.50;;;1.30;;
70780;SDS011;59514;48.810;2.134;2023-04-04T00:29:15;2.28;;;1.75;;
70780;SDS011;59514;48.810;2.134;2023-04-04T00:31:41;1.50;;;1.40;;
70780;SDS011;59514;48.810;2.134;2023-04-04T00:34:07;1.65;;;1.52;;
70780;SDS011;59514;48.810;2.134;2023-04-04T00:36:32;2.45;;;1.90;;
70780;SDS011;59514;48.810;2.134;2023-04-04T00:38:58;2.22;;;2.03;;
70780;SDS011;59514;48.810;2.134;2023-04-04T00:41:23;1.95;;;1.75;;
70780;SDS011;59514;48.810;2.134;2023-04-04T00:43:48;1.50;;;1.40;;
70780;SDS011;59514;48.810;2.134;2023-04-04T00:46:14;3.08;;;1.60;;
70780;SDS011;59514;48.810;2.134;2023-04-04T00:48:41;3.17;;;2.10;;
70780;SDS011;59514;48.810;2.134;2023-04-04T00:51:07;1.92;;;1.55;;
70780;SDS011;59514;48.810;2.134;2023-04-04T00:53:33;2.17;;;1.30;;
70780;SDS011;59514;48.810;2.134;2023-04-04T00:55:58;2.88;;;1.67;;
70780;SDS011;59514;48.810;2.134;2023-04-04T00:58:24;2.05;;;1.45;;
70780;SDS011;59514;48.810;2.134;2023-04-04T01:00:50;1.83;;;1.50;;
70780;SDS011;59514;48.810;2.134;2023-04-04T01:03:16;1.85;;;1.23;;
70780;SDS011;59514;48.810;2.134;2023-04-04T01:05:42;2.47;;;1.40;;
70780;SDS011;59514;48.810;2.134;2023-04-04T01:08:07;2.13;;;1.65;;
70780;SDS011;59514;48.810;2.134;2023-04-04T01:10:33;2.00;;;1.58;;
70780;SDS011;59514;48.810;2.134;2023-04-04T01:12:59;2.33;;;1.55;;
70780;SDS011;59514;48.810;2.134;2023-04-04T01:15:24;2.13;;;1.70;;
70780;SDS011;59514;48.810;2.134;2023-04-04T01:17:50;1.60;;;1.50;;
70780;SDS011;59514;48.810;2.134;2023-04-04T01:20:20;3.22;;;1.88;;
70780;SDS011;59514;48.810;2.134;2023-04-04T01:22:49;1.90;;;1.35;;
70780;SDS011;59514;48.810;2.134;2023-04-04T01:25:17;1.65;;;1.45;;
70780;SDS011;59514;48.810;2.134;2023-04-04T01:27:43;1.60;;;1.45;;
70780;SDS011;59514;48.810;2.134;2023-04-04T01:30:08;3.05;;;1.85;;
70780;SDS011;59514;48.810;2.134;2023-04-04T01:32:43;1.63;;;1.35;;
70780;SDS011;59514;48.810;2.134;2023-04-04T01:37:53;2.33;;;1.80;;
70780;SDS011;59514;48.810;2.134;2023-04-04T01:40:24;3.35;;;1.70;;
70780;SDS011;59514;48.810;2.134;2023-04-04T01:42:52;1.55;;;1.30;;
70780;SDS011;59514;48.810;2.134;2023-04-04T01:45:20;2.20;;;1.90;;
70780;SDS011;59514;48.810;2.134;2023-04-04T01:47:46;3.50;;;1.65;;
70780;SDS011;59514;48.810;2.134;2023-04-04T01:50:12;2.53;;;1.73;;
70780;SDS011;59514;48.810;2.134;2023-04-04T01:52:37;2.63;;;2.03;;
70780;SDS011;59514;48.810;2.134;2023-04-04T01:55:03;1.80;;;1.70;;
70780;SDS011;59514;48.810;2.134;2023-04-04T01:57:29;2.03;;;1.70;;
70780;SDS011;59514;48.810;2.134;2023-04-04T01:59:54;3.28;;;2.22;;
70780;SDS011;59514;48.810;2.134;2023-04-04T02:02:20;2.20;;;1.75;;
70780;SDS011;59514;48.810;2.134;2023-04-04T02:04:45;1.70;;;1.60;;
70780;SDS011;59514;48.810;2.134;2023-04-04T02:07:11;2.53;;;1.55;;
70780;SDS011;59514;48.810;2.134;2023-04-04T02:09:37;1.85;;;1.60;;
70780;SDS011;59514;48.810;2.134;2023-04-04T02:12:02;3.53;;;1.70;;
70780;SDS011;59514;48.810;2.134;2023-04-04T02:14:28;1.77;;;1.67;;
70780;SDS011;59514;48.810;2.134;2023-04-04T02:16:53;4.22;;;1.92;;
70780;SDS011;59514;48.810;2.134;2023-04-04T02:19:19;1.60;;;1.45;;
70780;SDS011;59514;48.810;2.134;2023-04-04T02:21:45;1.67;;;1.50;;
70780;SDS011;59514;48.810;2.134;2023-04-04T02:24:10;2.75;;;1.52;;
70780;SDS011;59514;48.810;2.134;2023-04-04T02:26:35;2.92;;;1.60;;
70780;SDS011;59514;48.810;2.134;2023-04-04T02:29:01;1.92;;;1.45;;
70780;SDS011;59514;48.810;2.134;2023-04-04T02:31:27;1.70;;;1.60;;
70780;SDS011;59514;48.810;2.134;2023-04-04T02:33:52;1.85;;;1.50;;
70780;SDS011;59514;48.810;2.134;2023-04-04T02:36:17;2.65;;;2.10;;
70780;SDS011;59514;48.810;2.134;2023-04-04T02:38:43;2.67;;;2.00;;
70780;SDS011;59514;48.810;2.134;2023-04-04T02:41:08;2.38;;;1.77;;
70780;SDS011;59514;48.810;2.134;2023-04-04T02:43:33;2.05;;;1.67;;
70780;SDS011;59514;48.810;2.134;2023-04-04T02:45:59;2.00;;;1.88;;
70780;SDS011;59514;48.810;2.134;2023-04-04T02:48:24;4.47;;;1.90;;
70780;SDS011;59514;48.810;2.134;2023-04-04T02:50:49;2.40;;;1.80;;
70780;SDS011;59514;48.810;2.134;2023-04-04T02:53:15;2.08;;;1.88;;
70780;SDS011;59514;48.810;2.134;2023-04-04T02:55:41;2.95;;;1.48;;
70780;SDS011;59514;48.810;2.134;2023-04-04T02:58:06;1.70;;;1.60;;
70780;SDS011;59514;48.810;2.134;2023-04-04T03:00:31;2.72;;;1.75;;
70780;SDS011;59514;48.810;2.134;2023-04-04T03:02:57;2.75;;;1.80;;
70780;SDS011;59514;48.810;2.134;2023-04-04T03:05:22;2.63;;;1.75;;
70780;SDS011;59514;48.810;2.134;2023-04-04T03:07:53;3.08;;;2.03;;
70780;SDS011;59514;48.810;2.134;2023-04-04T03:10:20;2.10;;;1.90;;
70780;SDS011;59514;48.810;2.134;2023-04-04T03:12:46;1.95;;;1.45;;
70780;SDS011;59514;48.810;2.134;2023-04-04T03:15:11;3.00;;;2.00;;
70780;SDS011;59514;48.810;2.134;2023-04-04T03:17:37;2.33;;;1.98;;
70780;SDS011;59514;48.810;2.134;2023-04-04T03:20:03;2.30;;;1.55;;
70780;SDS011;59514;48.810;2.134;2023-04-04T03:22:29;2.55;;;2.00;;
70780;SDS011;59514;48.810;2.134;2023-04-04T03:24:54;1.65;;;1.33;;
70780;SDS011;59514;48.810;2.134;2023-04-04T03:27:19;1.50;;;1.40;;
70780;SDS011;59514;48.810;2.134;2023-04-04T03:29:45;2.55;;;2.05;;
70780;SDS011;59514;48.810;2.134;2023-04-04T03:32:10;2.30;;;1.40;;
70780;SDS011;59514;48.810;2.134;2023-04-04T03:34:35;1.88;;;1.63;;
70780;SDS011;59514;48.810;2.134;2023-04-04T03:37:01;2.47;;;1.95;;
70780;SDS011;59514;48.810;2.134;2023-04-04T03:39:27;3.05;;;1.75;;
70780;SDS011;59514;48.810;2.134;2023-04-04T03:41:56;1.52;;;1.42;;
70780;SDS011;59514;48.810;2.134;2023-04-04T03:44:22;2.80;;;1.98;;
70780;SDS011;59514;48.810;2.134;2023-04-04T03:46:47;5.45;;;1.60;;
70780;SDS011;59514;48.810;2.134;2023-04-04T03:49:12;3.08;;;1.90;;
70780;SDS011;59514;48.810;2.134;2023-04-04T03:51:38;3.47;;;2.13;;
70780;SDS011;59514;48.810;2.134;2023-04-04T03:54:03;1.92;;;1.60;;
70780;SDS011;59514;48.810;2.134;2023-04-04T03:56:29;2.75;;;2.55;;
70780;SDS011;59514;48.810;2.134;2023-04-04T03:58:55;2.00;;;1.80;;
70780;SDS011;59514;48.810;2.134;2023-04-04T04:01:21;3.25;;;2.13;;
70780;SDS011;59514;48.810;2.134;2023-04-04T04:03:47;2.92;;;1.73;;
70780;SDS011;59514;48.810;2.134;2023-04-04T04:06:12;2.72;;;2.10;;
70780;SDS011;59514;48.810;2.134;2023-04-04T04:08:37;3.80;;;1.77;;
70780;SDS011;59514;48.810;2.134;2023-04-04T04:11:06;2.22;;;1.70;;
70780;SDS011;59514;48.810;2.134;2023-04-04T04:13:32;2.60;;;1.80;;
70780;SDS011;59514;48.810;2.134;2023-04-04T04:15:59;2.03;;;1.63;;
70780;SDS011;59514;48.810;2.134;2023-04-04T04:18:25;3.47;;;2.08;;
70780;SDS011;59514;48.810;2.134;2023-04-04T04:20:55;2.78;;;2.20;;
70780;SDS011;59514;48.810;2.134;2023-04-04T04:23:21;2.53;;;1.88;;
70780;SDS011;59514;48.810;2.134;2023-04-04T04:25:47;2.83;;;1.77;;
70780;SDS011;59514;48.810;2.134;2023-04-04T04:28:12;1.80;;;1.70;;
70780;SDS011;59514;48.810;2.134;2023-04-04T04:30:38;1.98;;;1.60;;
70780;SDS011;59514;48.810;2.134;2023-04-04T04:33:03;2.95;;;1.92;;
70780;SDS011;59514;48.810;2.134;2023-04-04T04:35:28;3.55;;;1.83;;
70780;SDS011;59514;48.810;2.134;2023-04-04T04:37:54;4.55;;;2.10;;
70780;SDS011;59514;48.810;2.134;2023-04-04T04:40:19;3.13;;;2.35;;
70780;SDS011;59514;48.810;2.134;2023-04-04T04:42:45;3.63;;;2.05;;
70780;SDS011;59514;48.810;2.134;2023-04-04T04:45:10;2.47;;;1.90;;
70780;SDS011;59514;48.810;2.134;2023-04-04T04:47:36;2.50;;;2.10;;
70780;SDS011;59514;48.810;2.134;2023-04-04T04:50:01;2.33;;;2.08;;
70780;SDS011;59514;48.810;2.134;2023-04-04T04:52:27;2.70;;;2.15;;
70780;SDS011;59514;48.810;2.134;2023-04-04T04:54:53;2.20;;;2.00;;
70780;SDS011;59514;48.810;2.134;2023-04-04T04:57:19;2.65;;;2.15;;
70780;SDS011;59514;48.810;2.134;2023-04-04T04:59:45;2.13;;;1.90;;
70780;SDS011;59514;48.810;2.134;2023-04-04T05:02:10;2.88;;;2.22;;
70780;SDS011;59514;48.810;2.134;2023-04-04T05:04:36;3.03;;;2.22;;
70780;SDS011;59514;48.810;2.134;2023-04-04T05:07:01;3.30;;;2.40;;
70780;SDS011;59514;48.810;2.134;2023-04-04T05:09:26;4.45;;;2.80;;
70780;SDS011;59514;48.810;2.134;2023-04-04T05:11:52;3.83;;;2.10;;
70780;SDS011;59514;48.810;2.134;2023-04-04T05:14:17;3.20;;;2.08;;
70780;SDS011;59514;48.810;2.134;2023-04-04T05:16:42;3.22;;;2.92;;
70780;SDS011;59514;48.810;2.134;2023-04-04T05:19:07;2.78;;;2.22;;
70780;SDS011;59514;48.810;2.134;2023-04-04T05:21:33;4.22;;;2.05;;
70780;SDS011;59514;48.810;2.134;2023-04-04T05:23:58;2.22;;;2.03;;
70780;SDS011;59514;48.810;2.134;2023-04-04T05:26:23;2.75;;;2.50;;
70780;SDS011;59514;48.810;2.134;2023-04-04T05:28:49;1.90;;;1.80;;
70780;SDS011;59514;48.810;2.134;2023-04-04T05:31:14;2.70;;;2.08;;
70780;SDS011;59514;48.810;2.134;2023-04-04T05:33:40;2.83;;;2.10;;
70780;SDS011;59514;48.810;2.134;2023-04-04T05:36:05;2.75;;;2.08;;
70780;SDS011;59514;48.810;2.134;2023-04-04T05:38:31;5.22;;;3.95;;
70780;SDS011;59514;48.810;2.134;2023-04-04T05:40:56;5.32;;;4.28;;
70780;SDS011;59514;48.810;2.134;2023-04-04T05:43:21;3.80;;;2.75;;
70780;SDS011;59514;48.810;2.134;2023-04-04T05:45:47;2.92;;;2.55;;
70780;SDS011;59514;48.810;2.134;2023-04-04T05:48:12;2.25;;;2.05;;
70780;SDS011;59514;48.810;2.134;2023-04-04T05:50:37;2.47;;;2.28;;
70780;SDS011;59514;48.810;2.134;2023-04-04T05:53:03;3.30;;;2.40;;
70780;SDS011;59514;48.810;2.134;2023-04-04T05:55:28;6.68;;;3.03;;
70780;SDS011;59514;48.810;2.134;2023-04-04T05:57:54;3.10;;;2.80;;
70780;SDS011;59514;48.810;2.134;2023-04-04T06:00:20;3.42;;;2.40;;
70780;SDS011;59514;48.810;2.134;2023-04-04T06:02:46;3.28;;;2.42;;
70780;SDS011;59514;48.810;2.134;2023-04-04T06:05:12;4.38;;;2.67;;
70780;SDS011;59514;48.810;2.134;2023-04-04T06:07:37;3.25;;;2.00;;
70780;SDS011;59514;48.810;2.134;2023-04-04T06:10:03;2.17;;;2.00;;
70780;SDS011;59514;48.810;2.134;2023-04-04T06:12:29;2.58;;;2.38;;
70780;SDS011;59514;48.810;2.134;2023-04-04T06:14:54;2.95;;;2.15;;
70780;SDS011;59514;48.810;2.134;2023-04-04T06:17:19;3.35;;;2.30;;
70780;SDS011;59514;48.810;2.134;2023-04-04T06:19:45;3.90;;;2.33;;
70780;SDS011;59514;48.810;2.134;2023-04-04T06:22:10;3.10;;;2.20;;
70780;SDS011;59514;48.810;2.134;2023-04-04T06:24:35;2.88;;;2.20;;
70780;SDS011;59514;48.810;2.134;2023-04-04T06:27:01;4.82;;;2.65;;
70780;SDS011;59514;48.810;2.134;2023-04-04T06:29:26;4.20;;;2.80;;
70780;SDS011;59514;48.810;2.134;2023-04-04T06:31:52;3.50;;;2.25;;
70780;SDS011;59514;48.810;2.134;2023-04-04T06:34:17;2.40;;;2.20;;
70780;SDS011;59514;48.810;2.134;2023-04-04T06:36:45;6.32;;;2.38;;
70780;SDS011;59514;48.810;2.134;2023-04-04T06:39:10;2.78;;;2.38;;
70780;SDS011;59514;48.810;2.134;2023-04-04T06:41:36;2.35;;;2.15;;
70780;SDS011;59514;48.810;2.134;2023-04-04T06:44:01;3.03;;;2.40;;
70780;SDS011;59514;48.810;2.134;2023-04-04T06:46:26;3.45;;;2.13;;
70780;SDS011;59514;48.810;2.134;2023-04-04T06:48:52;2.30;;;2.10;;
70780;SDS011;59514;48.810;2.134;2023-04-04T06:51:18;3.47;;;2.25;;
70780;SDS011;59514;48.810;2.134;2023-04-04T06:53:44;2.78;;;2.20;;
70780;SDS011;59514;48.810;2.134;2023-04-04T06:56:09;6.20;;;2.38;;
70780;SDS011;59514;48.810;2.134;2023-04-04T06:58:34;2.97;;;2.38;;
70780;SDS011;59514;48.810;2.134;2023-04-04T07:01:02;3.20;;;2.10;;
70780;SDS011;59514;48.810;2.134;2023-04-04T07:03:28;2.25;;;2.03;;
70780;SDS011;59514;48.810;2.134;2023-04-04T07:05:53;2.67;;;2.47;;
70780;SDS011;59514;48.810;2.134;2023-04-04T07:08:18;3.03;;;2.22;;
70780;SDS011;59514;48.810;2.134;2023-04-04T07:10:44;3.15;;;2.72;;
70780;SDS011;59514;48.810;2.134;2023-04-04T07:13:10;3.17;;;2.10;;
70780;SDS011;59514;48.810;2.134;2023-04-04T07:15:35;3.83;;;2.05;;
70780;SDS011;59514;48.810;2.134;2023-04-04T07:18:01;2.75;;;2.55;;
70780;SDS011;59514;48.810;2.134;2023-04-04T07:20:26;2.17;;;1.98;;
70780;SDS011;59514;48.810;2.134;2023-04-04T07:22:52;2.30;;;2.10;;
70780;SDS011;59514;48.810;2.134;2023-04-04T07:25:17;2.42;;;2.20;;
70780;SDS011;59514;48.810;2.134;2023-04-04T07:27:43;2.38;;;2.00;;
70780;SDS011;59514;48.810;2.134;2023-04-04T07:30:08;4.32;;;2.55;;
70780;SDS011;59514;48.810;2.134;2023-04-04T07:32:34;1.88;;;1.73;;
70780;SDS011;59514;48.810;2.134;2023-04-04T07:34:59;2.97;;;2.22;;
70780;SDS011;59514;48.810;2.134;2023-04-04T07:37:25;2.20;;;2.00;;
70780;SDS011;59514;48.810;2.134;2023-04-04T07:39:50;3.42;;;2.17;;
70780;SDS011;59514;48.810;2.134;2023-04-04T07:42:16;2.50;;;2.30;;
70780;SDS011;59514;48.810;2.134;2023-04-04T07:44:47;4.50;;;2.35;;
70780;SDS011;59514;48.810;2.134;2023-04-04T07:47:15;2.78;;;2.28;;
70780;SDS011;59514;48.810;2.134;2023-04-04T07:49:40;5.18;;;2.38;;
70780;SDS011;59514;48.810;2.134;2023-04-04T07:52:06;3.13;;;2.55;;
70780;SDS011;59514;48.810;2.134;2023-04-04T07:54:32;2.30;;;2.10;;
70780;SDS011;59514;48.810;2.134;2023-04-04T07:56:58;3.30;;;2.13;;
70780;SDS011;59514;48.810;2.134;2023-04-04T07:59:23;4.75;;;2.10;;
70780;SDS011;59514;48.810;2.134;2023-04-04T08:01:48;2.88;;;2.13;;
70780;SDS011;59514;48.810;2.134;2023-04-04T08:04:14;3.22;;;2.20;;
70780;SDS011;59514;48.810;2.134;2023-04-04T08:06:39;2.05;;;1.92;;
70780;SDS011;59514;48.810;2.134;2023-04-04T08:09:05;3.03;;;2.33;;
70780;SDS011;59514;48.810;2.134;2023-04-04T08:11:30;4.43;;;2.42;;
70780;SDS011;59514;48.810;2.134;2023-04-04T08:13:55;2.63;;;1.88;;
70780;SDS011;59514;48.810;2.134;2023-04-04T08:16:21;3.70;;;2.10;;
70780;SDS011;59514;48.810;2.134;2023-04-04T08:18:46;3.50;;;2.03;;
70780;SDS011;59514;48.810;2.134;2023-04-04T08:21:11;3.50;;;2.33;;
70780;SDS011;59514;48.810;2.134;2023-04-04T08:23:36;4.57;;;2.17;;
70780;SDS011;59514;48.810;2.134;2023-04-04T08:26:02;4.32;;;2.40;;
70780;SDS011;59514;48.810;2.134;2023-04-04T08:28:27;2.42;;;2.13;;
70780;SDS011;59514;48.810;2.134;2023-04-04T08:30:53;2.92;;;2.08;;
70780;SDS011;59514;48.810;2.134;2023-04-04T08:33:20;3.65;;;2.30;;
70780;SDS011;59514;48.810;2.134;2023-04-04T08:35:46;3.33;;;2.17;;
70780;SDS011;59514;48.810;2.134;2023-04-04T08:38:11;3.30;;;2.10;;
70780;SDS011;59514;48.810;2.134;2023-04-04T08:40:37;3.00;;;2.28;;
70780;SDS011;59514;48.810;2.134;2023-04-04T08:43:03;3.15;;;2.13;;
70780;SDS011;59514;48.810;2.134;2023-04-04T08:45:29;3.10;;;2.20;;
70780;SDS011;59514;48.810;2.134;2023-04-04T08:47:57;2.92;;;1.80;;
70780;SDS011;59514;48.810;2.134;2023-04-04T08:50:25;5.63;;;2.55;;
70780;SDS011;59514;48.810;2.134;2023-04-04T08:52:52;4.55;;;2.40;;
70780;SDS011;59514;48.810;2.134;2023-04-04T08:55:19;2.67;;;1.88;;
70780;SDS011;59514;48.810;2.134;2023-04-04T08:57:44;4.30;;;2.28;;
70780;SDS011;59514;48.810;2.134;2023-04-04T09:00:11;2.38;;;1.80;;
70780;SDS011;59514;48.810;2.134;2023-04-04T09:05:30;2.08;;;1.83;;
70780;SDS011;59514;48.810;2.134;2023-04-04T09:07:56;1.85;;;1.70;;
70780;SDS011;59514;48.810;2.134;2023-04-04T09:10:22;2.25;;;1.88;;
70780;SDS011;59514;48.810;2.134;2023-04-04T09:12:47;4.82;;;2.15;;
70780;SDS011;59514;48.810;2.134;2023-04-04T09:15:15;2.00;;;1.85;;
70780;SDS011;59514;48.810;2.134;2023-04-04T09:17:40;3.83;;;2.03;;
70780;SDS011;59514;48.810;2.134;2023-04-04T09:23:01;2.80;;;2.25;;
70780;SDS011;59514;48.810;2.134;2023-04-04T09:25:29;1.80;;;1.70;;
70780;SDS011;59514;48.810;2.134;2023-04-04T09:27:54;3.13;;;2.35;;
70780;SDS011;59514;48.810;2.134;2023-04-04T09:30:22;4.68;;;1.85;;
70780;SDS011;59514;48.810;2.134;2023-04-04T09:32:47;2.30;;;2.08;;
70780;SDS011;59514;48.810;2.134;2023-04-04T09:35:13;4.38;;;2.00;;
70780;SDS011;59514;48.810;2.134;2023-04-04T09:37:40;2.40;;;2.13;;
70780;SDS011;59514;48.810;2.134;2023-04-04T09:40:07;2.15;;;1.92;;
70780;SDS011;59514;48.810;2.134;2023-04-04T09:42:33;1.85;;;1.73;;
70780;SDS011;59514;48.810;2.134;2023-04-04T09:44:59;2.95;;;2.08;;
70780;SDS011;59514;48.810;2.134;2023-04-04T09:47:26;3.30;;;2.42;;
70780;SDS011;59514;48.810;2.134;2023-04-04T09:49:57;3.17;;;1.90;;
70780;SDS011;59514;48.810;2.134;2023-04-04T09:52:30;2.80;;;2.05;;
70780;SDS011;59514;48.810;2.134;2023-04-04T09:54:59;2.60;;;2.10;;
70780;SDS011;59514;48.810;2.134;2023-04-04T09:57:32;4.82;;;1.80;;
70780;SDS011;59514;48.810;2.134;2023-04-04T09:59:59;2.85;;;1.92;;
70780;SDS011;59514;48.810;2.134;2023-04-04T10:04:56;1.80;;;1.70;;
70780;SDS011;59514;48.810;2.134;2023-04-04T10:07:28;3.80;;;2.33;;
70780;SDS011;59514;48.810;2.134;2023-04-04T10:09:55;3.03;;;1.55;;
70780;SDS011;59514;48.810;2.134;2023-04-04T10:12:23;2.42;;;1.70;;
70780;SDS011;59514;48.810;2.134;2023-04-04T10:14:56;2.70;;;1.60;;
70780;SDS011;59514;48.810;2.134;2023-04-04T10:17:23;3.65;;;1.95;;
70780;SDS011;59514;48.810;2.134;2023-04-04T10:19:49;2.28;;;1.85;;
70780;SDS011;59514;48.810;2.134;2023-04-04T10:22:16;2.67;;;1.95;;
70780;SDS011;59514;48.810;2.134;2023-04-04T10:24:44;1.75;;;1.63;;
70780;SDS011;59514;48.810;2.134;2023-04-04T10:27:10;2.55;;;2.33;;
70780;SDS011;59514;48.810;2.134;2023-04-04T10:29:35;2.63;;;2.17;;
70780;SDS011;59514;48.810;2.134;2023-04-04T10:32:03;3.75;;;1.95;;
70780;SDS011;59514;48.810;2.134;2023-04-04T10:34:44;1.90;;;1.80;;
70780;SDS011;59514;48.810;2.134;2023-04-04T10:37:14;4.20;;;1.73;;
70780;SDS011;59514;48.810;2.134;2023-04-04T10:39:50;2.58;;;2.15;;
70780;SDS011;59514;48.810;2.134;2023-04-04T10:42:17;2.63;;;1.90;;
70780;SDS011;59514;48.810;2.134;2023-04-04T10:44:43;2.78;;;1.65;;
70780;SDS011;59514;48.810;2.134;2023-04-04T10:47:19;3.20;;;1.65;;
70780;SDS011;59514;48.810;2.134;2023-04-04T10:49:47;2.22;;;1.90;;
70780;SDS011;59514;48.810;2.134;2023-04-04T10:52:23;3.17;;;1.75;;
70780;SDS011;59514;48.810;2.134;2023-04-04T10:54:51;2.95;;;2.00;;
70780;SDS011;59514;48.810;2.134;2023-04-04T10:57:21;1.75;;;1.52;;
70780;SDS011;59514;48.810;2.134;2023-04-04T11:00:00;2.70;;;1.77;;
70780;SDS011;59514;48.810;2.134;2023-04-04T11:02:42;2.15;;;1.80;;
70780;SDS011;59514;48.810;2.134;2023-04-04T11:07:59;2.70;;;1.55;;
70780;SDS011;59514;48.810;2.134;2023-04-04T11:10:28;2.72;;;1.80;;
70780;SDS011;59514;48.810;2.134;2023-04-04T11:12:56;2.60;;;1.67;;
70780;SDS011;59514;48.810;2.134;2023-04-04T11:15:45;3.50;;;1.60;;
70780;SDS011;59514;48.810;2.134;2023-04-04T11:20:55;2.50;;;1.55;;
70780;SDS011;59514;48.810;2.134;2023-04-04T11:23:21;1.50;;;1.40;;
70780;SDS011;59514;48.810;2.134;2023-04-04T11:28:25;3.33;;;1.77;;
70780;SDS011;59514;48.810;2.134;2023-04-04T11:38:59;2.13;;;1.33;;
70780;SDS011;59514;48.810;2.134;2023-04-04T11:41:41;1.98;;;1.60;;
70780;SDS011;59514;48.810;2.134;2023-04-04T11:44:07;2.00;;;1.70;;
70780;SDS011;59514;48.810;2.134;2023-04-04T11:46:34;2.15;;;1.45;;
70780;SDS011;59514;48.810;2.134;2023-04-04T11:48:59;1.80;;;1.30;;
70780;SDS011;59514;48.810;2.134;2023-04-04T11:51:25;2.72;;;1.50;;
70780;SDS011;59514;48.810;2.134;2023-04-04T11:53:51;2.90;;;1.55;;
70780;SDS011;59514;48.810;2.134;2023-04-04T11:56:17;3.50;;;1.30;;
70780;SDS011;59514;48.810;2.134;2023-04-04T11:58:46;1.45;;;1.35;;
70780;SDS011;59514;48.810;2.134;2023-04-04T12:01:12;1.95;;;1.20;;
70780;SDS011;59514;48.810;2.134;2023-04-04T12:03:38;1.95;;;1.50;;
70780;SDS011;59514;48.810;2.134;2023-04-04T12:06:04;1.45;;;1.20;;
70780;SDS011;59514;48.810;2.134;2023-04-04T12:08:30;2.78;;;1.33;;
70780;SDS011;59514;48.810;2.134;2023-04-04T12:10:55;2.13;;;1.55;;
70780;SDS011;59514;48.810;2.134;2023-04-04T12:13:26;1.73;;;1.40;;
70780;SDS011;59514;48.810;2.134;2023-04-04T12:15:55;2.05;;;1.50;;
70780;SDS011;59514;48.810;2.134;2023-04-04T12:18:21;2.30;;;1.35;;
70780;SDS011;59514;48.810;2.134;2023-04-04T12:20:47;2.15;;;1.95;;
70780;SDS011;59514;48.810;2.134;2023-04-04T12:23:15;2.42;;;1.67;;
70780;SDS011;59514;48.810;2.134;2023-04-04T12:25:40;2.20;;;1.67;;
70780;SDS011;59514;48.810;2.134;2023-04-04T12:28:08;2.70;;;1.85;;
70780;SDS011;59514;48.810;2.134;2023-04-04T12:30:36;1.30;;;1.20;;
70780;SDS011;59514;48.810;2.134;2023-04-04T12:33:02;1.70;;;1.60;;
70780;SDS011;59514;48.810;2.134;2023-04-04T12:35:29;1.45;;;1.27;;
70780;SDS011;59514;48.810;2.134;2023-04-04T12:38:05;2.67;;;1.55;;
70780;SDS011;59514;48.810;2.134;2023-04-04T12:40:39;2.03;;;1.45;;
70780;SDS011;59514;48.810;2.134;2023-04-04T12:43:05;2.03;;;1.33;;
70780;SDS011;59514;48.810;2.134;2023-04-04T12:45:35;1.30;;;1.10;;
70780;SDS011;59514;48.810;2.134;2023-04-04T12:48:01;1.83;;;1.40;;
70780;SDS011;59514;48.810;2.134;2023-04-04T12:50:44;1.58;;;1.48;;
70780;SDS011;59514;48.810;2.134;2023-04-04T12:53:13;1.65;;;1.50;;
70780;SDS011;59514;48.810;2.134;2023-04-04T12:55:44;2.85;;;1.20;;
70780;SDS011;59514;48.810;2.134;2023-04-04T12:58:10;2.97;;;2.78;;
70780;SDS011;59514;48.810;2.134;2023-04-04T13:00:37;1.42;;;1.25;;
70780;SDS011;59514;48.810;2.134;2023-04-04T13:03:03;1.50;;;1.27;;
70780;SDS011;59514;48.810;2.134;2023-04-04T13:05:31;1.55;;;1.35;;
70780;SDS011;59514;48.810;2.134;2023-04-04T13:08:05;1.85;;;1.60;;
70780;SDS011;59514;48.810;2.134;2023-04-04T13:13:38;1.58;;;1.40;;
70780;SDS011;59514;48.810;2.134;2023-04-04T13:18:42;1.63;;;1.30;;
70780;SDS011;59514;48.810;2.134;2023-04-04T13:21:08;2.13;;;1.77;;
70780;SDS011;59514;48.810;2.134;2023-04-04T13:23:36;2.00;;;1.67;;
70780;SDS011;59514;48.810;2.134;2023-04-04T13:26:06;1.55;;;1.45;;
70780;SDS011;59514;48.810;2.134;2023-04-04T13:28:33;2.35;;;1.40;;
70780;SDS011;59514;48.810;2.134;2023-04-04T13:31:03;1.60;;;1.50;;
70780;SDS011;59514;48.810;2.134;2023-04-04T13:33:29;1.65;;;1.55;;
70780;SDS011;59514;48.810;2.134;2023-04-04T13:35:54;4.63;;;2.35;;
70780;SDS011;59514;48.810;2.134;2023-04-04T13:38:21;1.88;;;1.60;;
70780;SDS011;59514;48.810;2.134;2023-04-04T13:40:47;3.40;;;1.95;;
70780;SDS011;59514;48.810;2.134;2023-04-04T13:43:12;2.40;;;1.67;;
70780;SDS011;59514;48.810;2.134;2023-04-04T13:45:39;1.77;;;1.48;;
70780;SDS011;59514;48.810;2.134;2023-04-04T13:48:06;1.42;;;1.30;;
70780;SDS011;59514;48.810;2.134;2023-04-04T13:50:33;2.47;;;1.40;;
70780;SDS011;59514;48.810;2.134;2023-04-04T13:53:00;1.77;;;1.52;;
70780;SDS011;59514;48.810;2.134;2023-04-04T13:55:25;1.83;;;1.33;;
70780;SDS011;59514;48.810;2.134;2023-04-04T13:57:51;1.90;;;1.30;;
70780;SDS011;59514;48.810;2.134;2023-04-04T14:00:17;2.20;;;1.13;;
70780;SDS011;59514;48.810;2.134;2023-04-04T14:02:42;1.92;;;1.33;;
70780;SDS011;59514;48.810;2.134;2023-04-04T14:05:08;1.80;;;1.67;;
70780;SDS011;59514;48.810;2.134;2023-04-04T14:07:34;1.38;;;1.27;;
70780;SDS011;59514;48.810;2.134;2023-04-04T14:10:01;2.00;;;1.40;;
70780;SDS011;59514;48.810;2.134;2023-04-04T14:12:27;2.28;;;1.52;;
70780;SDS011;59514;48.810;2.134;2023-04-04T14:14:52;1.80;;;1.43;;
70780;SDS011;59514;48.810;2.134;2023-04-04T14:17:17;1.40;;;1.30;;
70780;SDS011;59514;48.810;2.134;2023-04-04T14:19:43;1.63;;;1.52;;
70780;SDS011;59514;48.810;2.134;2023-04-04T14:22:08;2.00;;;1.70;;
70780;SDS011;59514;48.810;2.134;2023-04-04T14:24:34;1.92;;;1.60;;
70780;SDS011;59514;48.810;2.134;2023-04-04T14:26:59;1.83;;;1.30;;
70780;SDS011;59514;48.810;2.134;2023-04-04T14:29:25;2.50;;;1.70;;
70780;SDS011;59514;48.810;2.134;2023-04-04T14:31:50;1.65;;;1.42;;
70780;SDS011;59514;48.810;2.134;2023-04-04T14:34:16;2.73;;;1.60;;
70780;SDS011;59514;48.810;2.134;2023-04-04T14:36:41;2.10;;;1.50;;
70780;SDS011;59514;48.810;2.134;2023-04-04T14:39:06;2.25;;;1.35;;
70780;SDS011;59514;48.810;2.134;2023-04-04T14:41:32;1.83;;;1.70;;
70780;SDS011;59514;48.810;2.134;2023-04-04T14:43:57;1.33;;;1.23;;
70780;SDS011;59514;48.810;2.134;2023-04-04T14:46:22;1.43;;;1.33;;
70780;SDS011;59514;48.810;2.134;2023-04-04T14:48:48;2.83;;;1.23;;
70780;SDS011;59514;48.810;2.134;2023-04-04T14:51:14;1.98;;;1.50;;
70780;SDS011;59514;48.810;2.134;2023-04-04T14:53:40;1.92;;;1.38;;
70780;SDS011;59514;48.810;2.134;2023-04-04T14:56:06;1.17;;;1.15;;
70780;SDS011;59514;48.810;2.134;2023-04-04T14:58:31;1.38;;;1.27;;
70780;SDS011;59514;48.810;2.134;2023-04-04T15:00:58;2.05;;;1.48;;
70780;SDS011;59514;48.810;2.134;2023-04-04T15:03:25;6.35;;;1.58;;
70780;SDS011;59514;48.810;2.134;2023-04-04T15:05:51;0.80;;;0.70;;
70780;SDS011;59514;48.810;2.134;2023-04-04T15:08:16;1.30;;;0.70;;
70780;SDS011;59514;48.810;2.134;2023-04-04T15:10:41;1.75;;;0.60;;
70780;SDS011;59514;48.810;2.134;2023-04-04T15:13:07;0.90;;;0.70;;
70780;SDS011;59514;48.810;2.134;2023-04-04T15:15:32;1.08;;;0.73;;